createdAt,value
2022-10-15T00:01:32.054Z,9.25
2022-10-15T00:04:49.896Z,21.50
2022-10-15T00:08:09.698Z,22.25
2022-10-15T00:11:47.773Z,28.00
2022-10-15T00:15:06.879Z,22.00
2022-10-15T00:18:27.104Z,25.00
2022-10-15T00:21:46.970Z,23.50
2022-10-15T00:25:08.062Z,28.00
2022-10-15T00:28:31.924Z,21.25
2022-10-15T00:31:55.027Z,24.00
2022-10-15T00:35:14.496Z,25.75
2022-10-15T00:38:34.272Z,16.00
2022-10-15T00:41:53.751Z,22.50
2022-10-15T00:45:16.431Z,20.50
2022-10-15T00:48:36.739Z,19.75
2022-10-15T00:52:00.828Z,23.75
2022-10-15T00:55:28.952Z,18.00
2022-10-15T00:58:50.444Z,21.25
2022-10-15T01:02:11.958Z,28.50
2022-10-15T01:05:18.431Z,20.00
2022-10-15T01:08:22.086Z,25.25
2022-10-15T01:11:48.385Z,13.75
2022-10-15T01:15:04.452Z,24.25
2022-10-15T01:18:13.385Z,20.50
2022-10-15T01:21:24.496Z,19.00
2022-10-15T01:24:47.206Z,21.50
2022-10-15T01:27:55.727Z,21.75
2022-10-15T01:31:05.148Z,24.50
2022-10-15T01:37:28.567Z,17.75
2022-10-15T01:40:38.724Z,22.25
2022-10-15T01:43:48.528Z,18.75
2022-10-15T01:47:07.152Z,14.75
2022-10-15T01:50:16.351Z,22.25
2022-10-15T01:53:26.923Z,22.50
2022-10-15T01:56:34.881Z,22.75
2022-10-15T01:59:38.663Z,23.25
2022-10-15T02:02:44.526Z,21.25
2022-10-15T02:05:54.128Z,20.50
2022-10-15T02:09:05.936Z,23.25
2022-10-15T02:12:20.083Z,19.25
2022-10-15T02:15:33.212Z,20.00
2022-10-15T02:18:42.583Z,18.25
2022-10-15T02:21:51.887Z,20.50
2022-10-15T02:24:59.402Z,21.50
2022-10-15T02:28:05.185Z,18.25
2022-10-15T02:31:10.636Z,16.50
2022-10-15T02:34:20.761Z,23.75
2022-10-15T02:37:28.397Z,22.00
2022-10-15T02:40:35.658Z,17.00
2022-10-15T02:43:41.082Z,21.50
2022-10-15T02:47:05.639Z,24.25
2022-10-15T02:50:19.462Z,22.00
2022-10-15T02:53:23.556Z,16.50
2022-10-15T02:56:27.637Z,22.50
2022-10-15T02:59:31.783Z,21.00
2022-10-15T03:02:36.372Z,23.75
2022-10-15T03:05:44.040Z,18.50
2022-10-15T03:08:47.846Z,20.75
2022-10-15T03:11:52.179Z,20.25
2022-10-15T03:14:57.741Z,18.75
2022-10-15T03:18:02.564Z,17.75
2022-10-15T03:21:07.889Z,21.75
2022-10-15T03:24:12.107Z,21.25
2022-10-15T03:27:15.860Z,20.25
2022-10-15T03:30:20.335Z,17.25
2022-10-15T03:33:25.226Z,17.75
2022-10-15T03:36:31.698Z,23.50
2022-10-15T03:39:36.298Z,19.50
2022-10-15T03:42:43.099Z,16.75
2022-10-15T03:45:47.704Z,12.25
2022-10-15T03:48:56.562Z,19.50
2022-10-15T03:52:02.054Z,19.00
2022-10-15T03:55:08.019Z,26.50
2022-10-15T03:58:12.049Z,10.50
2022-10-15T04:01:25.172Z,20.75
2022-10-15T04:04:29.043Z,20.00
2022-10-15T04:07:34.783Z,22.75
2022-10-15T04:10:38.394Z,20.50
2022-10-15T04:13:43.957Z,28.50
2022-10-15T04:16:47.793Z,17.25
2022-10-15T04:19:56.772Z,27.50
2022-10-15T04:23:01.782Z,29.75
2022-10-15T04:26:06.405Z,26.00
2022-10-15T04:29:10.098Z,24.25
2022-10-15T04:32:15.481Z,21.50
2022-10-15T04:35:20.671Z,24.75
2022-10-15T04:38:48.933Z,22.50
2022-10-15T04:41:59.261Z,21.50
2022-10-15T04:45:07.823Z,26.50
2022-10-15T04:48:11.526Z,22.25
2022-10-15T04:51:17.349Z,20.25
2022-10-15T04:54:47.978Z,25.75
2022-10-15T04:57:52.352Z,19.75
2022-10-15T05:01:03.090Z,24.50
2022-10-15T05:04:12.262Z,31.50
2022-10-15T05:07:17.152Z,38.75
2022-10-15T05:10:23.426Z,28.50
2022-10-15T05:13:28.366Z,68.25
2022-10-15T05:16:34.367Z,30.00
2022-10-15T05:19:38.259Z,68.00
2022-10-15T05:22:42.875Z,67.25
2022-10-15T05:25:51.702Z,34.00
2022-10-15T05:29:01.871Z,59.25
2022-10-15T05:32:07.816Z,51.50
2022-10-15T05:35:11.558Z,44.00
2022-10-15T05:38:52.564Z,42.25
2022-10-15T05:41:58.305Z,48.25
2022-10-15T05:45:17.879Z,63.25
2022-10-15T05:48:21.632Z,50.50
2022-10-15T05:51:26.452Z,90.50
2022-10-15T05:54:33.825Z,64.00
2022-10-15T05:57:38.708Z,38.75
2022-10-15T06:00:44.549Z,39.00
2022-10-15T06:03:48.063Z,46.50
2022-10-15T06:06:51.855Z,71.00
2022-10-15T06:09:55.353Z,69.25
2022-10-15T06:13:02.670Z,65.75
2022-10-15T06:16:07.282Z,61.25
2022-10-15T06:19:11.485Z,60.50
2022-10-15T06:22:15.099Z,61.00
2022-10-15T06:25:19.002Z,93.25
2022-10-15T06:28:24.422Z,86.00
2022-10-15T06:31:28.325Z,72.25
2022-10-15T06:34:31.839Z,63.50
2022-10-15T06:37:35.883Z,62.25
2022-10-15T06:40:39.955Z,61.75
2022-10-15T06:43:46.199Z,42.25
2022-10-15T06:46:50.478Z,57.50
2022-10-15T06:49:54.381Z,66.50
2022-10-15T06:56:06.764Z,68.00
2022-10-15T06:59:16.378Z,63.00
2022-10-15T07:02:20.450Z,60.00
2022-10-15T07:05:23.948Z,61.00
2022-10-15T07:08:27.863Z,63.25
2022-10-15T07:11:31.226Z,54.75
2022-10-15T07:14:40.078Z,56.00
2022-10-15T07:17:49.017Z,51.25
2022-10-15T07:20:52.633Z,44.75
2022-10-15T07:23:56.023Z,42.00
2022-10-15T07:27:02.633Z,48.50
2022-10-15T07:30:13.573Z,45.50
2022-10-15T07:33:19.088Z,39.50
2022-10-15T07:36:36.586Z,42.50
2022-10-15T07:39:41.866Z,37.00
2022-10-15T07:42:45.347Z,32.00
2022-10-15T07:45:50.789Z,54.25
2022-10-15T07:48:54.363Z,27.25
2022-10-15T07:51:58.315Z,27.50
2022-10-15T07:55:01.708Z,27.25
2022-10-15T07:58:08.311Z,23.25
2022-10-15T08:01:13.104Z,22.25
2022-10-15T08:04:16.767Z,26.50
2022-10-15T08:07:21.579Z,24.75
2022-10-15T08:10:25.500Z,22.00
2022-10-15T08:13:28.883Z,22.75
2022-10-15T08:16:33.955Z,28.50
2022-10-15T08:19:38.179Z,21.50
2022-10-15T08:22:41.702Z,26.00
2022-10-15T08:25:45.603Z,26.25
2022-10-15T08:28:49.183Z,28.25
2022-10-15T08:31:54.958Z,25.75
2022-10-15T08:35:00.162Z,27.25
2022-10-15T08:38:11.114Z,27.50
2022-10-15T08:41:27.381Z,24.25
2022-10-15T08:44:35.300Z,24.75
2022-10-15T08:47:45.070Z,21.25
2022-10-15T08:50:56.291Z,25.25
2022-10-15T08:54:04.008Z,22.67
2022-10-15T08:57:18.507Z,19.75
2022-10-15T09:00:23.828Z,18.00
2022-10-15T09:03:37.717Z,19.25
2022-10-15T09:06:41.651Z,16.25
2022-10-15T09:09:52.481Z,25.50
2022-10-15T09:13:02.222Z,21.25
2022-10-15T09:16:13.840Z,27.50
2022-10-15T09:19:21.140Z,19.00
2022-10-15T09:22:28.750Z,16.00
2022-10-15T09:25:37.074Z,13.00
2022-10-15T09:28:50.662Z,17.67
2022-10-15T09:32:07.826Z,14.00
2022-10-15T09:35:20.616Z,15.25
2022-10-15T09:38:33.862Z,11.33
2022-10-15T09:41:49.141Z,13.67
2022-10-15T09:44:54.166Z,13.67
2022-10-15T09:48:00.440Z,17.25
2022-10-15T09:51:13.275Z,8.33
2022-10-15T09:54:28.490Z,15.00
2022-10-15T09:57:34.692Z,11.00
2022-10-15T10:00:57.565Z,15.75
2022-10-15T10:04:14.278Z,11.50
2022-10-15T10:07:37.045Z,15.33
2022-10-15T10:10:43.143Z,14.67
2022-10-15T10:13:54.975Z,10.00
2022-10-15T10:17:23.118Z,13.33
2022-10-15T10:20:28.900Z,13.67
2022-10-15T10:23:35.573Z,13.67
2022-10-15T10:26:39.394Z,16.33
2022-10-15T10:29:44.082Z,12.33
2022-10-15T10:32:48.839Z,12.67
2022-10-15T10:35:53.123Z,9.33
2022-10-15T10:39:02.896Z,11.67
2022-10-15T10:42:08.944Z,7.00
2022-10-15T10:45:19.680Z,11.00
2022-10-15T10:48:25.573Z,7.33
2022-10-15T10:51:30.960Z,7.00
2022-10-15T10:54:36.423Z,8.33
2022-10-15T10:57:49.508Z,10.00
2022-10-15T11:00:55.702Z,12.33
2022-10-15T11:04:00.061Z,8.33
2022-10-15T11:07:06.854Z,12.33
2022-10-15T11:10:22.311Z,6.33
2022-10-15T11:13:37.113Z,11.00
2022-10-15T11:16:51.756Z,7.00
2022-10-15T11:20:39.002Z,7.00
2022-10-15T11:24:10.311Z,13.00
2022-10-15T11:27:48.400Z,14.00
2022-10-15T11:31:10.551Z,10.33
2022-10-15T11:34:28.818Z,8.33
2022-10-15T11:37:47.411Z,9.00
2022-10-15T11:41:05.246Z,11.00
2022-10-15T11:44:26.941Z,7.33
2022-10-15T11:47:47.127Z,11.00
2022-10-15T11:50:55.695Z,11.33
2022-10-15T11:54:18.032Z,12.33
2022-10-15T11:57:25.881Z,12.00
2022-10-15T12:00:37.200Z,10.00
2022-10-15T12:03:53.778Z,12.00
2022-10-15T12:06:59.979Z,7.67
2022-10-15T12:10:15.086Z,10.67
2022-10-15T12:13:29.313Z,9.00
2022-10-15T12:16:42.423Z,11.00
2022-10-15T12:19:52.084Z,9.33
2022-10-15T12:22:58.463Z,10.00
2022-10-15T12:26:01.970Z,9.00
2022-10-15T12:29:19.105Z,10.33
2022-10-15T12:32:26.725Z,11.33
2022-10-15T12:35:37.654Z,15.33
2022-10-15T12:38:43.246Z,10.00
2022-10-15T12:41:50.287Z,14.67
2022-10-15T12:44:54.262Z,10.67
2022-10-15T12:48:20.082Z,14.00
2022-10-15T12:51:33.900Z,13.67
2022-10-15T12:54:40.698Z,10.33
2022-10-15T12:58:03.914Z,16.00
2022-10-15T13:01:28.104Z,10.33
2022-10-15T13:04:42.975Z,8.00
2022-10-15T13:08:37.304Z,8.67
2022-10-15T13:11:45.765Z,13.67
2022-10-15T13:14:56.314Z,11.67
2022-10-15T13:18:02.085Z,3.00
2022-10-15T13:21:09.934Z,14.67
2022-10-15T13:24:20.307Z,14.00
2022-10-15T13:27:25.762Z,11.67
2022-10-15T13:30:29.507Z,12.67
2022-10-15T13:33:34.343Z,16.33
2022-10-15T13:36:40.398Z,14.00
2022-10-15T13:39:44.168Z,17.67
2022-10-15T13:43:00.575Z,14.33
2022-10-15T13:46:04.317Z,12.33
2022-10-15T13:49:28.749Z,16.33
2022-10-15T13:52:34.463Z,15.00
2022-10-15T13:55:41.893Z,14.00
2022-10-15T13:58:48.775Z,19.67
2022-10-15T14:01:55.939Z,13.33
2022-10-15T14:05:17.592Z,17.00
2022-10-15T14:08:25.631Z,15.33
2022-10-15T14:11:31.164Z,10.00
2022-10-15T14:14:37.076Z,17.00
2022-10-15T14:17:41.829Z,14.33
2022-10-15T14:20:46.661Z,16.67
2022-10-15T14:23:52.251Z,16.67
2022-10-15T14:26:55.985Z,16.33
2022-10-15T14:30:01.532Z,17.67
2022-10-15T14:33:05.318Z,8.00
2022-10-15T14:36:25.074Z,16.00
2022-10-15T14:39:33.154Z,16.25
2022-10-15T14:42:40.694Z,12.33
2022-10-15T14:45:57.176Z,14.00
2022-10-15T14:49:01.375Z,13.67
2022-10-15T14:52:07.449Z,29.00
2022-10-15T14:55:20.794Z,13.33
2022-10-15T14:58:26.131Z,10.67
2022-10-15T15:01:33.960Z,14.33
2022-10-15T15:04:43.839Z,24.50
2022-10-15T15:07:48.191Z,17.00
2022-10-15T15:10:56.897Z,15.33
2022-10-15T15:14:01.255Z,14.67
2022-10-15T15:17:05.049Z,16.75
2022-10-15T15:20:09.270Z,19.67
2022-10-15T15:23:16.051Z,11.00
2022-10-15T15:26:21.343Z,14.67
2022-10-15T15:29:24.911Z,15.33
2022-10-15T15:32:28.929Z,27.00
2022-10-15T15:35:40.448Z,22.00
2022-10-15T15:38:44.263Z,24.25
2022-10-15T15:41:49.278Z,29.50
2022-10-15T15:44:52.865Z,27.00
2022-10-15T15:47:58.870Z,20.50
2022-10-15T15:51:06.907Z,27.75
2022-10-15T15:54:10.690Z,30.75
2022-10-15T15:57:15.952Z,21.75
2022-10-15T16:00:20.005Z,24.50
2022-10-15T16:03:23.638Z,22.00
2022-10-15T16:06:27.111Z,15.25
2022-10-15T16:09:30.643Z,18.00
2022-10-15T16:12:35.776Z,20.00
2022-10-15T16:15:40.939Z,21.50
2022-10-15T16:18:50.689Z,22.25
2022-10-15T16:21:54.682Z,25.75
2022-10-15T16:24:58.475Z,25.75
2022-10-15T16:28:15.251Z,34.00
2022-10-15T16:31:22.671Z,27.00
2022-10-15T16:34:28.053Z,30.00
2022-10-15T16:37:31.550Z,30.75
2022-10-15T16:40:35.741Z,23.75
2022-10-15T16:43:41.021Z,25.25
2022-10-15T16:46:45.544Z,27.25
2022-10-15T16:49:49.276Z,22.25
2022-10-15T16:52:53.780Z,20.00
2022-10-15T16:56:04.419Z,22.00
2022-10-15T16:59:09.993Z,12.00
2022-10-15T17:02:13.463Z,15.75
2022-10-15T17:05:17.416Z,22.00
2022-10-15T17:08:22.448Z,17.00
2022-10-15T17:11:29.433Z,19.75
2022-10-15T17:14:34.676Z,18.00
2022-10-15T17:17:38.574Z,21.25
2022-10-15T17:20:46.025Z,24.75
2022-10-15T17:23:52.166Z,23.50
2022-10-15T17:26:57.913Z,21.00
2022-10-15T17:30:03.131Z,18.50
2022-10-15T17:33:06.844Z,20.25
2022-10-15T17:36:12.566Z,26.50
2022-10-15T17:39:17.897Z,30.25
2022-10-15T17:42:21.969Z,25.00
2022-10-15T17:45:29.832Z,27.50
2022-10-15T17:48:34.206Z,28.75
2022-10-15T17:51:38.015Z,29.00
2022-10-15T17:54:43.079Z,22.75
2022-10-15T17:57:48.333Z,38.00
2022-10-15T18:00:57.685Z,70.75
2022-10-15T18:04:17.214Z,60.75
2022-10-15T18:07:21.190Z,40.25
2022-10-15T18:14:49.377Z,49.00
2022-10-15T18:18:01.347Z,42.25
2022-10-15T18:21:10.407Z,47.25
2022-10-15T18:24:14.719Z,32.00
2022-10-15T18:27:18.533Z,43.00
2022-10-15T18:30:26.634Z,43.00
2022-10-15T18:33:32.579Z,37.75
2022-10-15T18:36:55.659Z,42.50
2022-10-15T18:39:59.992Z,50.25
2022-10-15T18:43:03.676Z,35.50
2022-10-15T18:46:07.388Z,37.50
2022-10-15T18:49:13.699Z,31.00
2022-10-15T18:52:28.075Z,38.00
2022-10-15T18:56:03.496Z,33.25
2022-10-15T18:59:07.409Z,27.00
2022-10-15T19:02:13.500Z,29.75
2022-10-15T19:05:19.812Z,34.00
2022-10-15T19:08:28.755Z,30.50
2022-10-15T19:11:35.126Z,44.50
2022-10-15T19:14:40.649Z,39.25
2022-10-15T19:17:44.218Z,52.00
2022-10-15T19:21:01.105Z,45.75
2022-10-15T19:24:05.501Z,45.75
2022-10-15T19:30:13.124Z,41.75
2022-10-15T19:33:34.888Z,43.75
2022-10-15T19:36:42.190Z,50.75
2022-10-15T19:39:48.341Z,52.75
2022-10-15T19:42:52.632Z,33.75
2022-10-15T19:45:57.247Z,72.00
2022-10-15T19:49:00.680Z,79.25
2022-10-15T19:52:06.232Z,72.75
2022-10-15T19:55:10.560Z,85.00
2022-10-15T19:58:14.287Z,79.25
2022-10-15T20:01:17.872Z,52.00
2022-10-15T20:04:21.644Z,44.50
2022-10-15T20:07:27.215Z,54.50
2022-10-15T20:10:31.358Z,52.75
2022-10-15T20:13:35.871Z,54.50
2022-10-15T20:16:39.744Z,46.00
2022-10-15T20:19:43.247Z,55.00
2022-10-15T20:22:48.399Z,41.00
2022-10-15T20:25:52.341Z,54.50
2022-10-15T20:28:56.526Z,45.25
2022-10-15T20:32:05.863Z,48.25
2022-10-15T20:35:21.904Z,45.25
2022-10-15T20:38:27.485Z,51.00
2022-10-15T20:41:31.428Z,50.50
2022-10-15T20:44:34.912Z,40.00
2022-10-15T20:47:42.853Z,38.75
2022-10-15T20:50:47.891Z,49.25
2022-10-15T20:53:53.695Z,41.50
2022-10-15T20:56:57.378Z,52.75
2022-10-15T21:00:01.053Z,42.00
2022-10-15T21:03:04.634Z,44.75
2022-10-15T21:06:08.707Z,55.75
2022-10-15T21:09:13.723Z,47.50
2022-10-15T21:12:18.350Z,43.50
2022-10-15T21:15:21.947Z,49.25
2022-10-15T21:18:26.952Z,52.50
2022-10-15T21:21:30.399Z,41.75
2022-10-15T21:24:38.282Z,41.75
2022-10-15T21:27:41.833Z,36.25
2022-10-15T21:30:45.967Z,42.00
2022-10-15T21:33:50.080Z,42.00
2022-10-15T21:36:56.021Z,32.75
2022-10-15T21:40:02.251Z,50.75
2022-10-15T21:43:06.624Z,32.25
2022-10-15T21:46:12.266Z,29.25
2022-10-15T21:49:15.960Z,36.00
2022-10-15T21:52:20.448Z,31.75
2022-10-15T21:55:29.790Z,26.25
2022-10-15T21:58:35.104Z,36.75
2022-10-15T22:01:39.253Z,35.25
2022-10-15T22:04:43.230Z,26.75
2022-10-15T22:07:47.208Z,26.00
2022-10-15T22:10:52.256Z,28.00
2022-10-15T22:13:58.847Z,37.25
2022-10-15T22:17:02.790Z,36.75
2022-10-15T22:20:08.593Z,40.75
2022-10-15T22:23:12.016Z,38.00
2022-10-15T22:26:19.128Z,28.75
2022-10-15T22:29:25.308Z,38.25
2022-10-15T22:32:29.400Z,31.00
2022-10-15T22:35:35.124Z,35.00
2022-10-15T22:38:39.207Z,25.00
2022-10-15T22:41:47.467Z,30.25
2022-10-15T22:44:51.571Z,36.00
2022-10-15T22:47:55.522Z,36.75
2022-10-15T22:51:00.774Z,32.75
2022-10-15T22:54:04.649Z,36.50
2022-10-15T22:57:10.240Z,35.00
2022-10-15T23:00:15.152Z,32.50
2022-10-15T23:03:19.154Z,28.75
2022-10-15T23:06:27.856Z,36.00
2022-10-15T23:09:32.207Z,21.75
2022-10-15T23:12:38.900Z,33.25
2022-10-15T23:15:43.187Z,31.25
2022-10-15T23:18:51.461Z,35.25
2022-10-15T23:21:57.025Z,27.75
2022-10-15T23:25:00.910Z,29.50
2022-10-15T23:28:06.899Z,34.50
2022-10-15T23:31:17.972Z,34.50
2022-10-15T23:34:23.970Z,29.50
2022-10-15T23:37:27.836Z,36.75
2022-10-15T23:40:32.127Z,36.75
2022-10-15T23:43:37.418Z,32.00
2022-10-15T23:46:45.653Z,37.00
2022-10-15T23:49:50.094Z,34.75
2022-10-15T23:52:54.001Z,31.25
2022-10-15T23:55:57.387Z,28.00
2022-10-15T23:59:02.680Z,29.25
